sensor_id;sensor_type;location;lat;lon;timestamp;pressure;altitude;pressure_sealevel;temperature;humidity
79236;BME280;69062;47.460;18.812;2023-11-21T00:00:34;99751.44;;;4.09;86.91
79236;BME280;69062;47.460;18.812;2023-11-21T00:01:37;99755.75;;;4.10;86.69
79236;BME280;69062;47.460;18.812;2023-11-21T00:02:41;99756.72;;;4.08;86.39
79236;BME280;69062;47.460;18.812;2023-11-21T00:03:44;99760.19;;;4.08;86.27
79236;BME280;69062;47.460;18.812;2023-11-21T00:04:48;99755.19;;;4.01;86.08
79236;BME280;69062;47.460;18.812;2023-11-21T00:05:51;99745.00;;;3.92;85.94
79236;BME280;69062;47.460;18.812;2023-11-21T00:06:54;99757.91;;;3.96;86.11
79236;BME280;69062;47.460;18.812;2023-11-21T00:07:57;99754.41;;;3.97;85.55
79236;BME280;69062;47.460;18.812;2023-11-21T00:09:00;99761.38;;;3.97;85.85
79236;BME280;69062;47.460;18.812;2023-11-21T00:10:03;99754.59;;;3.91;85.64
79236;BME280;69062;47.460;18.812;2023-11-21T00:11:10;99752.09;;;3.86;85.73
79236;BME280;69062;47.460;18.812;2023-11-21T00:12:13;99750.56;;;3.79;85.92
79236;BME280;69062;47.460;18.812;2023-11-21T00:13:17;99750.84;;;3.70;86.13
79236;BME280;69062;47.460;18.812;2023-11-21T00:14:20;99754.09;;;3.78;85.73
79236;BME280;69062;47.460;18.812;2023-11-21T00:15:23;99760.91;;;3.84;85.73
79236;BME280;69062;47.460;18.812;2023-11-21T00:16:26;99756.53;;;3.84;85.41
79236;BME280;69062;47.460;18.812;2023-11-21T00:17:28;99756.75;;;3.77;85.44
79236;BME280;69062;47.460;18.812;2023-11-21T00:18:31;99756.19;;;3.66;85.61
79236;BME280;69062;47.460;18.812;2023-11-21T00:19:34;99762.34;;;3.63;85.76
79236;BME280;69062;47.460;18.812;2023-11-21T00:20:37;99750.09;;;3.65;85.94
79236;BME280;69062;47.460;18.812;2023-11-21T00:21:40;99758.69;;;3.69;85.38
79236;BME280;69062;47.460;18.812;2023-11-21T00:22:43;99758.63;;;3.72;85.88
79236;BME280;69062;47.460;18.812;2023-11-21T00:23:46;99765.38;;;3.79;85.80
79236;BME280;69062;47.460;18.812;2023-11-21T00:24:48;99763.59;;;3.81;85.96
79236;BME280;69062;47.460;18.812;2023-11-21T00:25:51;99759.38;;;3.77;85.96
79236;BME280;69062;47.460;18.812;2023-11-21T00:26:54;99753.56;;;3.66;86.06
79236;BME280;69062;47.460;18.812;2023-11-21T00:27:57;99768.44;;;3.62;86.09
79236;BME280;69062;47.460;18.812;2023-11-21T00:29:00;99763.16;;;3.65;85.81
79236;BME280;69062;47.460;18.812;2023-11-21T00:30:03;99766.50;;;3.70;85.92
79236;BME280;69062;47.460;18.812;2023-11-21T00:31:09;99760.72;;;3.59;86.42
79236;BME280;69062;47.460;18.812;2023-11-21T00:32:12;99767.81;;;3.54;86.38
79236;BME280;69062;47.460;18.812;2023-11-21T00:33:15;99767.66;;;3.60;86.40
79236;BME280;69062;47.460;18.812;2023-11-21T00:34:18;99766.94;;;3.55;86.86
79236;BME280;69062;47.460;18.812;2023-11-21T00:35:21;99769.34;;;3.63;86.69
79236;BME280;69062;47.460;18.812;2023-11-21T00:36:23;99771.00;;;3.65;86.41
79236;BME280;69062;47.460;18.812;2023-11-21T00:37:26;99777.19;;;3.61;87.36
79236;BME280;69062;47.460;18.812;2023-11-21T00:38:29;99787.72;;;3.58;86.76
79236;BME280;69062;47.460;18.812;2023-11-21T00:39:33;99787.63;;;3.63;86.54
79236;BME280;69062;47.460;18.812;2023-11-21T00:40:37;99798.00;;;3.64;86.45
79236;BME280;69062;47.460;18.812;2023-11-21T00:41:40;99794.50;;;3.65;86.10
79236;BME280;69062;47.460;18.812;2023-11-21T00:42:43;99794.66;;;3.59;86.32
79236;BME280;69062;47.460;18.812;2023-11-21T00:43:46;99792.44;;;3.44;86.74
79236;BME280;69062;47.460;18.812;2023-11-21T00:44:49;99786.28;;;3.48;86.39
79236;BME280;69062;47.460;18.812;2023-11-21T00:45:52;99783.69;;;3.46;86.55
79236;BME280;69062;47.460;18.812;2023-11-21T00:46:54;99791.44;;;3.49;86.49
79236;BME280;69062;47.460;18.812;2023-11-21T00:47:57;99789.69;;;3.50;86.80
79236;BME280;69062;47.460;18.812;2023-11-21T00:49:02;99789.69;;;3.50;87.09
79236;BME280;69062;47.460;18.812;2023-11-21T00:50:06;99787.88;;;3.52;87.13
79236;BME280;69062;47.460;18.812;2023-11-21T00:51:09;99777.44;;;3.52;87.03
79236;BME280;69062;47.460;18.812;2023-11-21T00:52:12;99778.13;;;3.58;86.76
79236;BME280;69062;47.460;18.812;2023-11-21T00:53:15;99770.19;;;3.63;86.58
79236;BME280;69062;47.460;18.812;2023-11-21T00:54:18;99776.50;;;3.54;86.16
79236;BME280;69062;47.460;18.812;2023-11-21T00:55:21;99771.41;;;3.50;85.68
79236;BME280;69062;47.460;18.812;2023-11-21T00:56:23;99773.16;;;3.49;86.03
79236;BME280;69062;47.460;18.812;2023-11-21T00:57:26;99780.16;;;3.47;86.31
79236;BME280;69062;47.460;18.812;2023-11-21T00:58:29;99770.66;;;3.45;86.25
79236;BME280;69062;47.460;18.812;2023-11-21T00:59:32;99782.75;;;3.49;85.90
79236;BME280;69062;47.460;18.812;2023-11-21T01:00:35;99786.28;;;3.48;85.91
79236;BME280;69062;47.460;18.812;2023-11-21T01:01:38;99789.03;;;3.42;85.17
79236;BME280;69062;47.460;18.812;2023-11-21T01:02:41;99785.72;;;3.35;85.29
79236;BME280;69062;47.460;18.812;2023-11-21T01:03:46;99782.97;;;3.40;85.61
79236;BME280;69062;47.460;18.812;2023-11-21T01:04:48;99782.31;;;3.31;85.30
79236;BME280;69062;47.460;18.812;2023-11-21T01:05:51;99779.84;;;3.27;85.86
79236;BME280;69062;47.460;18.812;2023-11-21T01:06:54;99776.16;;;3.36;85.83
79236;BME280;69062;47.460;18.812;2023-11-21T01:07:57;99769.22;;;3.35;86.31
79236;BME280;69062;47.460;18.812;2023-11-21T01:08:59;99774.50;;;3.31;86.06
79236;BME280;69062;47.460;18.812;2023-11-21T01:10:03;99769.97;;;3.38;86.00
79236;BME280;69062;47.460;18.812;2023-11-21T01:11:10;99764.19;;;3.27;86.56
79236;BME280;69062;47.460;18.812;2023-11-21T01:12:14;99772.03;;;3.27;86.05
79236;BME280;69062;47.460;18.812;2023-11-21T01:13:18;99773.59;;;3.34;86.06
79236;BME280;69062;47.460;18.812;2023-11-21T01:14:21;99764.00;;;3.35;86.18
79236;BME280;69062;47.460;18.812;2023-11-21T01:15:23;99765.72;;;3.36;86.38
79236;BME280;69062;47.460;18.812;2023-11-21T01:16:28;99765.09;;;3.26;85.87
79236;BME280;69062;47.460;18.812;2023-11-21T01:17:31;99759.00;;;3.25;85.87
79236;BME280;69062;47.460;18.812;2023-11-21T01:18:37;99759.19;;;3.18;86.22
79236;BME280;69062;47.460;18.812;2023-11-21T01:19:41;99761.66;;;3.24;85.85
79236;BME280;69062;47.460;18.812;2023-11-21T01:20:43;99760.66;;;3.29;85.60
79236;BME280;69062;47.460;18.812;2023-11-21T01:21:49;99769.28;;;3.31;85.59
79236;BME280;69062;47.460;18.812;2023-11-21T01:22:52;99761.66;;;3.24;85.96
79236;BME280;69062;47.460;18.812;2023-11-21T01:23:56;99764.63;;;3.10;86.00
79236;BME280;69062;47.460;18.812;2023-11-21T01:24:59;99774.00;;;3.19;86.07
79236;BME280;69062;47.460;18.812;2023-11-21T01:26:01;99765.16;;;3.23;85.70
79236;BME280;69062;47.460;18.812;2023-11-21T01:27:04;99764.41;;;3.19;86.15
79236;BME280;69062;47.460;18.812;2023-11-21T01:28:07;99762.00;;;3.10;86.21
79236;BME280;69062;47.460;18.812;2023-11-21T01:29:10;99760.38;;;3.06;85.97
79236;BME280;69062;47.460;18.812;2023-11-21T01:30:13;99766.31;;;3.11;86.48
79236;BME280;69062;47.460;18.812;2023-11-21T01:31:15;99759.34;;;3.13;86.43
79236;BME280;69062;47.460;18.812;2023-11-21T01:32:18;99758.34;;;3.19;86.15
79236;BME280;69062;47.460;18.812;2023-11-21T01:33:22;99759.38;;;3.12;86.84
79236;BME280;69062;47.460;18.812;2023-11-21T01:34:25;99755.97;;;3.08;86.41
79236;BME280;69062;47.460;18.812;2023-11-21T01:35:29;99757.63;;;3.12;86.59
79236;BME280;69062;47.460;18.812;2023-11-21T01:36:33;99762.66;;;3.18;86.34
79236;BME280;69062;47.460;18.812;2023-11-21T01:37:37;99753.13;;;3.19;86.79
79236;BME280;69062;47.460;18.812;2023-11-21T01:38:40;99753.31;;;3.10;86.61
79236;BME280;69062;47.460;18.812;2023-11-21T01:39:43;99754.28;;;3.07;86.70
79236;BME280;69062;47.460;18.812;2023-11-21T01:40:46;99755.97;;;3.08;86.80
79236;BME280;69062;47.460;18.812;2023-11-21T01:41:50;99756.72;;;3.13;86.71
79236;BME280;69062;47.460;18.812;2023-11-21T01:42:55;99750.66;;;3.11;87.10
79236;BME280;69062;47.460;18.812;2023-11-21T01:43:58;99754.19;;;3.10;86.91
79236;BME280;69062;47.460;18.812;2023-11-21T01:45:02;99756.69;;;3.15;86.77
79236;BME280;69062;47.460;18.812;2023-11-21T01:46:08;99753.19;;;3.16;86.92
79236;BME280;69062;47.460;18.812;2023-11-21T01:47:11;99746.16;;;3.18;87.14
79236;BME280;69062;47.460;18.812;2023-11-21T01:48:15;99749.56;;;3.21;86.90
79236;BME280;69062;47.460;18.812;2023-11-21T01:49:19;99743.69;;;3.13;87.07
79236;BME280;69062;47.460;18.812;2023-11-21T01:50:23;99748.75;;;3.18;86.99
79236;BME280;69062;47.460;18.812;2023-11-21T01:51:26;99742.50;;;3.25;86.73
79236;BME280;69062;47.460;18.812;2023-11-21T01:52:30;99740.66;;;3.28;86.56
79236;BME280;69062;47.460;18.812;2023-11-21T01:53:33;99744.19;;;3.27;86.83
79236;BME280;69062;47.460;18.812;2023-11-21T01:54:37;99742.63;;;3.20;86.72
79236;BME280;69062;47.460;18.812;2023-11-21T01:55:42;99742.78;;;3.14;86.60
79236;BME280;69062;47.460;18.812;2023-11-21T01:56:47;99736.50;;;3.21;86.63
79236;BME280;69062;47.460;18.812;2023-11-21T01:57:50;99736.41;;;3.26;86.41
79236;BME280;69062;47.460;18.812;2023-11-21T01:58:53;99735.41;;;3.30;86.09
79236;BME280;69062;47.460;18.812;2023-11-21T01:59:58;99731.84;;;3.32;85.92
79236;BME280;69062;47.460;18.812;2023-11-21T02:01:03;99736.41;;;3.24;86.08
79236;BME280;69062;47.460;18.812;2023-11-21T02:02:06;99730.28;;;3.27;85.86
79236;BME280;69062;47.460;18.812;2023-11-21T02:03:11;99730.34;;;3.24;86.10
79236;BME280;69062;47.460;18.812;2023-11-21T02:04:14;99723.25;;;3.29;86.33
79236;BME280;69062;47.460;18.812;2023-11-21T02:05:19;99731.81;;;3.34;86.52
79236;BME280;69062;47.460;18.812;2023-11-21T02:06:22;99725.66;;;3.37;86.02
79236;BME280;69062;47.460;18.812;2023-11-21T02:07:25;99724.13;;;3.29;86.38
79236;BME280;69062;47.460;18.812;2023-11-21T02:08:28;99716.34;;;3.28;86.36
79236;BME280;69062;47.460;18.812;2023-11-21T02:09:31;99718.16;;;3.24;86.39
79236;BME280;69062;47.460;18.812;2023-11-21T02:10:35;99716.28;;;3.29;86.36
79236;BME280;69062;47.460;18.812;2023-11-21T02:11:39;99716.19;;;3.32;86.38
79236;BME280;69062;47.460;18.812;2023-11-21T02:12:42;99715.16;;;3.38;86.37
79236;BME280;69062;47.460;18.812;2023-11-21T02:13:45;99716.03;;;3.39;86.78
79236;BME280;69062;47.460;18.812;2023-11-21T02:14:49;99721.38;;;3.34;86.94
79236;BME280;69062;47.460;18.812;2023-11-21T02:15:53;99725.06;;;3.27;86.66
79236;BME280;69062;47.460;18.812;2023-11-21T02:16:57;99719.84;;;3.25;86.66
79236;BME280;69062;47.460;18.812;2023-11-21T02:18:00;99716.44;;;3.23;86.84
79236;BME280;69062;47.460;18.812;2023-11-21T02:19:07;99719.97;;;3.22;87.11
79236;BME280;69062;47.460;18.812;2023-11-21T02:20:12;99723.38;;;3.24;87.01
79236;BME280;69062;47.460;18.812;2023-11-21T02:21:18;99716.22;;;3.31;86.89
79236;BME280;69062;47.460;18.812;2023-11-21T02:22:21;99717.78;;;3.38;86.58
79236;BME280;69062;47.460;18.812;2023-11-21T02:23:25;99725.59;;;3.38;87.17
79236;BME280;69062;47.460;18.812;2023-11-21T02:24:31;99715.31;;;3.34;87.33
79236;BME280;69062;47.460;18.812;2023-11-21T02:25:34;99705.63;;;3.37;86.84
79236;BME280;69062;47.460;18.812;2023-11-21T02:26:40;99709.88;;;3.41;86.71
79236;BME280;69062;47.460;18.812;2023-11-21T02:27:43;99701.00;;;3.47;86.70
79236;BME280;69062;47.460;18.812;2023-11-21T02:28:51;99701.16;;;3.42;87.03
79236;BME280;69062;47.460;18.812;2023-11-21T02:29:55;99701.19;;;3.41;86.88
79236;BME280;69062;47.460;18.812;2023-11-21T02:30:58;99702.91;;;3.42;87.02
79236;BME280;69062;47.460;18.812;2023-11-21T02:32:01;99697.84;;;3.36;86.81
79236;BME280;69062;47.460;18.812;2023-11-21T02:33:04;99701.53;;;3.28;86.80
79236;BME280;69062;47.460;18.812;2023-11-21T02:34:08;99703.13;;;3.32;86.53
79236;BME280;69062;47.460;18.812;2023-11-21T02:35:11;99702.94;;;3.40;86.52
79236;BME280;69062;47.460;18.812;2023-11-21T02:36:14;99698.44;;;3.45;86.43
79236;BME280;69062;47.460;18.812;2023-11-21T02:37:17;99704.47;;;3.47;86.33
79236;BME280;69062;47.460;18.812;2023-11-21T02:38:23;99705.38;;;3.46;86.05
79236;BME280;69062;47.460;18.812;2023-11-21T02:39:25;99705.25;;;3.51;86.04
79236;BME280;69062;47.460;18.812;2023-11-21T02:40:29;99711.38;;;3.50;85.75
79236;BME280;69062;47.460;18.812;2023-11-21T02:41:32;99707.00;;;3.50;85.99
79236;BME280;69062;47.460;18.812;2023-11-21T02:42:37;99707.34;;;3.38;85.64
79236;BME280;69062;47.460;18.812;2023-11-21T02:43:40;99704.69;;;3.40;85.77
79236;BME280;69062;47.460;18.812;2023-11-21T02:44:43;99698.59;;;3.41;85.56
79236;BME280;69062;47.460;18.812;2023-11-21T02:45:45;99707.22;;;3.43;85.81
79236;BME280;69062;47.460;18.812;2023-11-21T02:46:48;99705.59;;;3.39;86.06
79236;BME280;69062;47.460;18.812;2023-11-21T02:47:51;99697.75;;;3.39;86.18
79236;BME280;69062;47.460;18.812;2023-11-21T02:48:56;99698.75;;;3.35;86.15
79236;BME280;69062;47.460;18.812;2023-11-21T02:50:00;99695.31;;;3.32;86.25
79236;BME280;69062;47.460;18.812;2023-11-21T02:51:03;99692.00;;;3.27;86.35
79236;BME280;69062;47.460;18.812;2023-11-21T02:52:06;99685.88;;;3.28;86.43
79236;BME280;69062;47.460;18.812;2023-11-21T02:53:09;99691.16;;;3.25;86.36
79236;BME280;69062;47.460;18.812;2023-11-21T02:54:13;99697.91;;;3.32;86.01
79236;BME280;69062;47.460;18.812;2023-11-21T02:55:18;99693.56;;;3.33;86.51
79236;BME280;69062;47.460;18.812;2023-11-21T02:56:21;99682.47;;;3.26;86.52
79236;BME280;69062;47.460;18.812;2023-11-21T02:57:24;99684.38;;;3.20;86.38
79236;BME280;69062;47.460;18.812;2023-11-21T02:58:27;99686.09;;;3.21;86.78
79236;BME280;69062;47.460;18.812;2023-11-21T02:59:30;99691.00;;;3.31;86.28
79236;BME280;69062;47.460;18.812;2023-11-21T03:00:32;99684.75;;;3.37;86.35
79236;BME280;69062;47.460;18.812;2023-11-21T03:01:35;99680.31;;;3.41;86.39
79236;BME280;69062;47.460;18.812;2023-11-21T03:02:38;99679.44;;;3.40;86.83
79236;BME280;69062;47.460;18.812;2023-11-21T03:03:42;99685.56;;;3.39;86.80
79236;BME280;69062;47.460;18.812;2023-11-21T03:04:45;99678.59;;;3.40;86.41
79236;BME280;69062;47.460;18.812;2023-11-21T03:05:50;99672.50;;;3.39;85.99
79236;BME280;69062;47.460;18.812;2023-11-21T03:06:53;99670.13;;;3.31;86.28
79236;BME280;69062;47.460;18.812;2023-11-21T03:07:56;99669.25;;;3.31;86.42
79236;BME280;69062;47.460;18.812;2023-11-21T03:09:00;99664.03;;;3.31;86.21
79236;BME280;69062;47.460;18.812;2023-11-21T03:10:03;99659.59;;;3.35;85.88
79236;BME280;69062;47.460;18.812;2023-11-21T03:11:06;99662.94;;;3.40;86.60
79236;BME280;69062;47.460;18.812;2023-11-21T03:12:10;99666.25;;;3.45;86.09
79236;BME280;69062;47.460;18.812;2023-11-21T03:13:14;99667.94;;;3.47;86.18
79236;BME280;69062;47.460;18.812;2023-11-21T03:14:17;99674.03;;;3.48;86.44
79236;BME280;69062;47.460;18.812;2023-11-21T03:15:20;99667.16;;;3.44;86.02
79236;BME280;69062;47.460;18.812;2023-11-21T03:16:23;99671.97;;;3.28;86.23
79236;BME280;69062;47.460;18.812;2023-11-21T03:17:26;99673.72;;;3.27;86.15
79236;BME280;69062;47.460;18.812;2023-11-21T03:18:28;99669.25;;;3.31;86.28
79236;BME280;69062;47.460;18.812;2023-11-21T03:19:31;99660.41;;;3.37;86.23
79236;BME280;69062;47.460;18.812;2023-11-21T03:20:34;99664.84;;;3.35;86.72
79236;BME280;69062;47.460;18.812;2023-11-21T03:21:37;99656.16;;;3.34;86.36
79236;BME280;69062;47.460;18.812;2023-11-21T03:22:40;99658.97;;;3.26;86.69
79236;BME280;69062;47.460;18.812;2023-11-21T03:23:43;99654.69;;;3.24;86.66
79236;BME280;69062;47.460;18.812;2023-11-21T03:24:46;99645.88;;;3.28;86.19
79236;BME280;69062;47.460;18.812;2023-11-21T03:25:48;99650.88;;;3.36;86.02
79236;BME280;69062;47.460;18.812;2023-11-21T03:26:51;99649.19;;;3.33;86.36
79236;BME280;69062;47.460;18.812;2023-11-21T03:27:54;99653.56;;;3.32;86.36
79236;BME280;69062;47.460;18.812;2023-11-21T03:28:57;99645.72;;;3.32;86.23
79236;BME280;69062;47.460;18.812;2023-11-21T03:29:59;99647.63;;;3.27;86.59
79236;BME280;69062;47.460;18.812;2023-11-21T03:31:02;99642.41;;;3.27;86.65
79236;BME280;69062;47.460;18.812;2023-11-21T03:32:05;99638.81;;;3.31;86.67
79236;BME280;69062;47.460;18.812;2023-11-21T03:33:09;99636.06;;;3.36;86.41
79236;BME280;69062;47.460;18.812;2023-11-21T03:34:22;99637.94;;;3.31;86.54
79236;BME280;69062;47.460;18.812;2023-11-21T03:35:25;99630.84;;;3.36;86.80
79236;BME280;69062;47.460;18.812;2023-11-21T03:36:28;99636.81;;;3.41;86.94
79236;BME280;69062;47.460;18.812;2023-11-21T03:37:31;99631.53;;;3.43;86.70
79236;BME280;69062;47.460;18.812;2023-11-21T03:38:36;99625.63;;;3.36;86.98
79236;BME280;69062;47.460;18.812;2023-11-21T03:39:38;99630.91;;;3.33;86.98
79236;BME280;69062;47.460;18.812;2023-11-21T03:40:41;99626.75;;;3.27;87.10
79236;BME280;69062;47.460;18.812;2023-11-21T03:41:44;99628.28;;;3.35;86.69
79236;BME280;69062;47.460;18.812;2023-11-21T03:42:47;99639.63;;;3.34;86.78
79236;BME280;69062;47.460;18.812;2023-11-21T03:43:50;99634.53;;;3.29;86.96
79236;BME280;69062;47.460;18.812;2023-11-21T03:44:53;99644.16;;;3.27;87.01
79236;BME280;69062;47.460;18.812;2023-11-21T03:45:56;99646.72;;;3.28;86.77
79236;BME280;69062;47.460;18.812;2023-11-21T03:46:59;99645.09;;;3.24;87.10
79236;BME280;69062;47.460;18.812;2023-11-21T03:48:02;99657.44;;;3.19;87.04
79236;BME280;69062;47.460;18.812;2023-11-21T03:49:05;99665.16;;;3.22;87.35
79236;BME280;69062;47.460;18.812;2023-11-21T03:50:08;99664.09;;;3.29;86.77
79236;BME280;69062;47.460;18.812;2023-11-21T03:51:11;99663.28;;;3.27;87.27
79236;BME280;69062;47.460;18.812;2023-11-21T03:52:14;99664.34;;;3.20;87.27
79236;BME280;69062;47.460;18.812;2023-11-21T03:53:17;99659.19;;;3.19;87.60
79236;BME280;69062;47.460;18.812;2023-11-21T03:54:20;99660.00;;;3.21;87.67
79236;BME280;69062;47.460;18.812;2023-11-21T03:55:23;99658.06;;;3.27;87.72
79236;BME280;69062;47.460;18.812;2023-11-21T03:56:29;99668.25;;;3.37;87.68
79236;BME280;69062;47.460;18.812;2023-11-21T03:57:32;99661.38;;;3.32;87.76
79236;BME280;69062;47.460;18.812;2023-11-21T03:58:35;99669.22;;;3.32;87.93
79236;BME280;69062;47.460;18.812;2023-11-21T03:59:41;99674.31;;;3.37;87.76
79236;BME280;69062;47.460;18.812;2023-11-21T04:00:44;99678.50;;;3.43;87.49
79236;BME280;69062;47.460;18.812;2023-11-21T04:01:47;99670.94;;;3.34;87.86
79236;BME280;69062;47.460;18.812;2023-11-21T04:02:49;99671.91;;;3.29;87.72
79236;BME280;69062;47.460;18.812;2023-11-21T04:03:54;99673.47;;;3.37;87.67
79236;BME280;69062;47.460;18.812;2023-11-21T04:04:57;99682.84;;;3.44;87.17
79236;BME280;69062;47.460;18.812;2023-11-21T04:06:00;99679.25;;;3.48;87.31
79236;BME280;69062;47.460;18.812;2023-11-21T04:07:03;99690.63;;;3.45;87.12
79236;BME280;69062;47.460;18.812;2023-11-21T04:08:07;99687.25;;;3.42;87.05
79236;BME280;69062;47.460;18.812;2023-11-21T04:09:10;99686.28;;;3.44;86.81
79236;BME280;69062;47.460;18.812;2023-11-21T04:10:13;99690.63;;;3.45;87.13
79236;BME280;69062;47.460;18.812;2023-11-21T04:11:16;99686.41;;;3.41;86.88
79236;BME280;69062;47.460;18.812;2023-11-21T04:12:18;99687.19;;;3.43;86.86
79236;BME280;69062;47.460;18.812;2023-11-21T04:13:21;99687.94;;;3.48;87.04
79236;BME280;69062;47.460;18.812;2023-11-21T04:14:24;99681.66;;;3.54;86.58
79236;BME280;69062;47.460;18.812;2023-11-21T04:15:26;99686.94;;;3.52;87.46
79236;BME280;69062;47.460;18.812;2023-11-21T04:16:29;99684.53;;;3.45;87.19
79236;BME280;69062;47.460;18.812;2023-11-21T04:17:32;99690.72;;;3.42;86.92
79236;BME280;69062;47.460;18.812;2023-11-21T04:18:36;99689.72;;;3.46;87.11
79236;BME280;69062;47.460;18.812;2023-11-21T04:19:40;99693.91;;;3.52;86.98
79236;BME280;69062;47.460;18.812;2023-11-21T04:20:43;99692.09;;;3.54;87.26
79236;BME280;69062;47.460;18.812;2023-11-21T04:21:46;99687.78;;;3.53;87.01
79236;BME280;69062;47.460;18.812;2023-11-21T04:22:49;99699.06;;;3.55;86.81
79236;BME280;69062;47.460;18.812;2023-11-21T04:23:52;99692.31;;;3.46;86.80
79236;BME280;69062;47.460;18.812;2023-11-21T04:24:54;99694.13;;;3.44;86.80
79236;BME280;69062;47.460;18.812;2023-11-21T04:25:58;99688.97;;;3.43;86.99
79236;BME280;69062;47.460;18.812;2023-11-21T04:27:01;99680.97;;;3.49;87.10
79236;BME280;69062;47.460;18.812;2023-11-21T04:28:05;99685.13;;;3.54;86.89
79236;BME280;69062;47.460;18.812;2023-11-21T04:29:08;99678.97;;;3.57;86.99
79236;BME280;69062;47.460;18.812;2023-11-21T04:30:12;99689.38;;;3.58;87.19
79236;BME280;69062;47.460;18.812;2023-11-21T04:31:14;99681.75;;;3.51;86.90
79236;BME280;69062;47.460;18.812;2023-11-21T04:32:17;99687.94;;;3.47;87.00
79236;BME280;69062;47.460;18.812;2023-11-21T04:33:20;99695.84;;;3.45;86.70
79236;BME280;69062;47.460;18.812;2023-11-21T04:34:24;99693.38;;;3.41;87.07
79236;BME280;69062;47.460;18.812;2023-11-21T04:35:26;99700.28;;;3.42;87.30
79236;BME280;69062;47.460;18.812;2023-11-21T04:36:30;99696.56;;;3.50;86.93
79236;BME280;69062;47.460;18.812;2023-11-21T04:37:33;99703.59;;;3.48;87.09
79236;BME280;69062;47.460;18.812;2023-11-21T04:38:36;99698.50;;;3.44;87.28
79236;BME280;69062;47.460;18.812;2023-11-21T04:39:39;99707.00;;;3.50;87.07
79236;BME280;69062;47.460;18.812;2023-11-21T04:40:42;99707.81;;;3.52;86.61
79236;BME280;69062;47.460;18.812;2023-11-21T04:41:45;99704.22;;;3.56;86.50
79236;BME280;69062;47.460;18.812;2023-11-21T04:42:47;99706.91;;;3.55;86.52
79236;BME280;69062;47.460;18.812;2023-11-21T04:43:50;99714.69;;;3.56;86.96
79236;BME280;69062;47.460;18.812;2023-11-21T04:44:53;99714.63;;;3.58;87.03
79236;BME280;69062;47.460;18.812;2023-11-21T04:45:56;99725.06;;;3.58;86.94
79236;BME280;69062;47.460;18.812;2023-11-21T04:46:59;99718.41;;;3.48;86.98
79236;BME280;69062;47.460;18.812;2023-11-21T04:48:02;99721.88;;;3.47;87.13
79236;BME280;69062;47.460;18.812;2023-11-21T04:49:05;99717.63;;;3.44;87.17
79236;BME280;69062;47.460;18.812;2023-11-21T04:50:08;99714.97;;;3.46;87.28
79236;BME280;69062;47.460;18.812;2023-11-21T04:51:11;99717.41;;;3.52;87.13
79236;BME280;69062;47.460;18.812;2023-11-21T04:52:15;99715.47;;;3.58;87.16
79236;BME280;69062;47.460;18.812;2023-11-21T04:53:18;99720.59;;;3.63;86.90
79236;BME280;69062;47.460;18.812;2023-11-21T04:54:21;99719.75;;;3.61;86.54
79236;BME280;69062;47.460;18.812;2023-11-21T04:55:26;99717.97;;;3.63;86.39
79236;BME280;69062;47.460;18.812;2023-11-21T04:56:30;99722.34;;;3.63;86.61
79236;BME280;69062;47.460;18.812;2023-11-21T04:57:33;99733.63;;;3.63;86.42
79236;BME280;69062;47.460;18.812;2023-11-21T04:58:36;99732.03;;;3.57;86.60
79236;BME280;69062;47.460;18.812;2023-11-21T04:59:39;99728.59;;;3.57;86.69
79236;BME280;69062;47.460;18.812;2023-11-21T05:00:42;99725.88;;;3.60;87.19
79236;BME280;69062;47.460;18.812;2023-11-21T05:01:45;99719.69;;;3.64;86.98
79236;BME280;69062;47.460;18.812;2023-11-21T05:02:47;99708.22;;;3.70;86.78
79236;BME280;69062;47.460;18.812;2023-11-21T05:03:50;99719.34;;;3.75;86.82
79236;BME280;69062;47.460;18.812;2023-11-21T05:04:55;99721.91;;;3.76;86.50
79236;BME280;69062;47.460;18.812;2023-11-21T05:05:59;99725.59;;;3.71;86.81
79236;BME280;69062;47.460;18.812;2023-11-21T05:07:02;99723.09;;;3.66;86.96
79236;BME280;69062;47.460;18.812;2023-11-21T05:08:05;99712.66;;;3.66;86.99
79236;BME280;69062;47.460;18.812;2023-11-21T05:09:08;99712.44;;;3.74;87.12
79236;BME280;69062;47.460;18.812;2023-11-21T05:10:14;99719.22;;;3.79;86.70
79236;BME280;69062;47.460;18.812;2023-11-21T05:11:27;99714.75;;;3.83;87.00
79236;BME280;69062;47.460;18.812;2023-11-21T05:12:31;99725.19;;;3.84;87.28
79236;BME280;69062;47.460;18.812;2023-11-21T05:13:42;99721.56;;;3.88;86.96
79236;BME280;69062;47.460;18.812;2023-11-21T05:14:45;99725.19;;;3.84;86.76
79236;BME280;69062;47.460;18.812;2023-11-21T05:15:49;99724.34;;;3.82;86.84
79236;BME280;69062;47.460;18.812;2023-11-21T05:16:52;99723.56;;;3.80;86.77
79236;BME280;69062;47.460;18.812;2023-11-21T05:17:55;99727.13;;;3.78;86.90
79236;BME280;69062;47.460;18.812;2023-11-21T05:18:57;99727.13;;;3.78;87.14
79236;BME280;69062;47.460;18.812;2023-11-21T05:20:04;99723.56;;;3.80;86.83
79236;BME280;69062;47.460;18.812;2023-11-21T05:21:10;99726.03;;;3.85;86.82
79236;BME280;69062;47.460;18.812;2023-11-21T05:22:13;99728.50;;;3.90;86.75
79236;BME280;69062;47.460;18.812;2023-11-21T05:23:16;99724.97;;;3.91;86.69
79236;BME280;69062;47.460;18.812;2023-11-21T05:24:19;99720.75;;;3.86;86.49
79236;BME280;69062;47.460;18.812;2023-11-21T05:25:21;99731.28;;;3.85;86.69
79236;BME280;69062;47.460;18.812;2023-11-21T05:26:24;99722.75;;;3.78;86.76
79236;BME280;69062;47.460;18.812;2023-11-21T05:27:27;99718.44;;;3.76;87.14
79236;BME280;69062;47.460;18.812;2023-11-21T05:28:30;99712.31;;;3.78;87.18
79236;BME280;69062;47.460;18.812;2023-11-21T05:29:32;99716.44;;;3.85;87.13
79236;BME280;69062;47.460;18.812;2023-11-21T05:30:35;99719.75;;;3.92;86.97
79236;BME280;69062;47.460;18.812;2023-11-21T05:31:38;99720.53;;;3.94;86.94
79236;BME280;69062;47.460;18.812;2023-11-21T05:32:41;99711.97;;;3.89;87.40
79236;BME280;69062;47.460;18.812;2023-11-21T05:33:47;99706.00;;;3.85;87.30
79236;BME280;69062;47.460;18.812;2023-11-21T05:34:49;99712.03;;;3.87;87.52
79236;BME280;69062;47.460;18.812;2023-11-21T05:35:52;99714.63;;;3.87;87.39